sensor_id;sensor_type;location;lat;lon;timestamp;P1;durP1;ratioP1;P2;durP2;ratioP2
59302;SDS011;45074;52.764;6.896;2023-04-06T00:01:39;11.27;;;7.55;;
59302;SDS011;45074;52.764;6.896;2023-04-06T00:04:06;11.88;;;7.50;;
59302;SDS011;45074;52.764;6.896;2023-04-06T00:06:32;11.38;;;7.38;;
59302;SDS011;45074;52.764;6.896;2023-04-06T00:08:58;10.57;;;7.35;;
59302;SDS011;45074;52.764;6.896;2023-04-06T00:11:25;11.15;;;7.57;;
59302;SDS011;45074;52.764;6.896;2023-04-06T00:13:51;11.45;;;7.20;;
59302;SDS011;45074;52.764;6.896;2023-04-06T00:16:17;10.60;;;7.20;;
59302;SDS011;45074;52.764;6.896;2023-04-06T00:18:43;9.15;;;6.40;;
59302;SDS011;45074;52.764;6.896;2023-04-06T00:21:12;10.90;;;7.10;;
59302;SDS011;45074;52.764;6.896;2023-04-06T00:23:39;11.25;;;7.32;;
59302;SDS011;45074;52.764;6.896;2023-04-06T00:26:05;12.18;;;7.38;;
59302;SDS011;45074;52.764;6.896;2023-04-06T00:28:31;9.68;;;6.97;;
59302;SDS011;45074;52.764;6.896;2023-04-06T00:30:57;10.13;;;6.97;;
59302;SDS011;45074;52.764;6.896;2023-04-06T00:33:23;11.25;;;7.32;;
59302;SDS011;45074;52.764;6.896;2023-04-06T00:35:49;11.77;;;7.18;;
59302;SDS011;45074;52.764;6.896;2023-04-06T00:38:16;11.20;;;7.57;;
59302;SDS011;45074;52.764;6.896;2023-04-06T00:40:42;11.07;;;7.95;;
59302;SDS011;45074;52.764;6.896;2023-04-06T00:43:11;11.95;;;7.70;;
59302;SDS011;45074;52.764;6.896;2023-04-06T00:45:38;10.27;;;7.65;;
59302;SDS011;45074;52.764;6.896;2023-04-06T00:48:05;11.55;;;7.60;;
59302;SDS011;45074;52.764;6.896;2023-04-06T00:50:31;10.55;;;7.10;;
59302;SDS011;45074;52.764;6.896;2023-04-06T00:52:58;11.75;;;7.40;;
59302;SDS011;45074;52.764;6.896;2023-04-06T00:55:23;10.77;;;7.93;;
59302;SDS011;45074;52.764;6.896;2023-04-06T00:57:50;13.20;;;8.10;;
59302;SDS011;45074;52.764;6.896;2023-04-06T01:00:16;12.93;;;7.68;;
59302;SDS011;45074;52.764;6.896;2023-04-06T01:02:42;11.32;;;7.00;;
59302;SDS011;45074;52.764;6.896;2023-04-06T01:05:10;12.10;;;8.23;;
59302;SDS011;45074;52.764;6.896;2023-04-06T01:07:36;11.75;;;7.32;;
59302;SDS011;45074;52.764;6.896;2023-04-06T01:10:02;12.93;;;7.32;;
59302;SDS011;45074;52.764;6.896;2023-04-06T01:12:28;14.50;;;7.28;;
59302;SDS011;45074;52.764;6.896;2023-04-06T01:14:54;11.85;;;7.57;;
59302;SDS011;45074;52.764;6.896;2023-04-06T01:17:21;11.38;;;7.65;;
59302;SDS011;45074;52.764;6.896;2023-04-06T01:19:47;16.17;;;8.13;;
59302;SDS011;45074;52.764;6.896;2023-04-06T01:22:17;11.80;;;8.23;;
59302;SDS011;45074;52.764;6.896;2023-04-06T01:24:44;10.77;;;7.78;;
59302;SDS011;45074;52.764;6.896;2023-04-06T01:27:10;12.02;;;7.65;;
59302;SDS011;45074;52.764;6.896;2023-04-06T01:29:36;11.85;;;7.20;;
59302;SDS011;45074;52.764;6.896;2023-04-06T01:32:02;13.90;;;7.95;;
59302;SDS011;45074;52.764;6.896;2023-04-06T01:34:28;10.73;;;7.50;;
59302;SDS011;45074;52.764;6.896;2023-04-06T01:36:54;11.05;;;7.90;;
59302;SDS011;45074;52.764;6.896;2023-04-06T01:39:20;10.57;;;6.97;;
59302;SDS011;45074;52.764;6.896;2023-04-06T01:41:46;11.65;;;7.25;;
59302;SDS011;45074;52.764;6.896;2023-04-06T01:44:16;12.60;;;8.13;;
59302;SDS011;45074;52.764;6.896;2023-04-06T01:46:43;10.35;;;7.55;;
59302;SDS011;45074;52.764;6.896;2023-04-06T01:49:09;12.10;;;7.82;;
59302;SDS011;45074;52.764;6.896;2023-04-06T01:51:35;10.98;;;7.55;;
59302;SDS011;45074;52.764;6.896;2023-04-06T01:54:01;11.45;;;7.85;;
59302;SDS011;45074;52.764;6.896;2023-04-06T01:56:27;11.63;;;8.02;;
59302;SDS011;45074;52.764;6.896;2023-04-06T01:58:53;11.05;;;7.80;;
59302;SDS011;45074;52.764;6.896;2023-04-06T02:01:20;11.40;;;7.88;;
59302;SDS011;45074;52.764;6.896;2023-04-06T02:03:46;14.07;;;7.90;;
59302;SDS011;45074;52.764;6.896;2023-04-06T02:06:12;11.60;;;7.70;;
59302;SDS011;45074;52.764;6.896;2023-04-06T02:08:38;12.57;;;7.70;;
59302;SDS011;45074;52.764;6.896;2023-04-06T02:11:04;11.95;;;8.02;;
59302;SDS011;45074;52.764;6.896;2023-04-06T02:13:30;11.90;;;8.00;;
59302;SDS011;45074;52.764;6.896;2023-04-06T02:15:56;11.93;;;7.72;;
59302;SDS011;45074;52.764;6.896;2023-04-06T02:18:23;11.55;;;7.80;;
59302;SDS011;45074;52.764;6.896;2023-04-06T02:20:48;11.68;;;7.90;;
59302;SDS011;45074;52.764;6.896;2023-04-06T02:23:14;11.80;;;8.13;;
59302;SDS011;45074;52.764;6.896;2023-04-06T02:25:40;11.02;;;7.70;;
59302;SDS011;45074;52.764;6.896;2023-04-06T02:28:07;12.88;;;7.75;;
59302;SDS011;45074;52.764;6.896;2023-04-06T02:30:33;11.75;;;7.50;;
59302;SDS011;45074;52.764;6.896;2023-04-06T02:32:59;11.15;;;7.50;;
59302;SDS011;45074;52.764;6.896;2023-04-06T02:35:27;11.02;;;7.78;;
59302;SDS011;45074;52.764;6.896;2023-04-06T02:37:53;11.60;;;8.30;;
59302;SDS011;45074;52.764;6.896;2023-04-06T02:40:19;12.02;;;7.70;;
59302;SDS011;45074;52.764;6.896;2023-04-06T02:42:45;12.27;;;8.10;;
59302;SDS011;45074;52.764;6.896;2023-04-06T02:45:11;11.93;;;7.97;;
59302;SDS011;45074;52.764;6.896;2023-04-06T02:47:38;10.82;;;7.88;;
59302;SDS011;45074;52.764;6.896;2023-04-06T02:50:04;11.80;;;8.02;;
59302;SDS011;45074;52.764;6.896;2023-04-06T02:52:30;13.02;;;7.88;;
59302;SDS011;45074;52.764;6.896;2023-04-06T02:54:56;11.43;;;7.40;;
59302;SDS011;45074;52.764;6.896;2023-04-06T02:57:22;12.43;;;7.93;;
59302;SDS011;45074;52.764;6.896;2023-04-06T02:59:48;13.75;;;8.65;;
59302;SDS011;45074;52.764;6.896;2023-04-06T03:02:14;12.48;;;8.40;;
59302;SDS011;45074;52.764;6.896;2023-04-06T03:04:41;12.20;;;8.38;;
59302;SDS011;45074;52.764;6.896;2023-04-06T03:07:07;14.18;;;8.45;;
59302;SDS011;45074;52.764;6.896;2023-04-06T03:09:33;12.88;;;8.35;;
59302;SDS011;45074;52.764;6.896;2023-04-06T03:11:59;12.05;;;7.85;;
59302;SDS011;45074;52.764;6.896;2023-04-06T03:14:27;12.35;;;8.20;;
59302;SDS011;45074;52.764;6.896;2023-04-06T03:16:53;10.77;;;8.02;;
59302;SDS011;45074;52.764;6.896;2023-04-06T03:19:19;14.27;;;10.43;;
59302;SDS011;45074;52.764;6.896;2023-04-06T03:21:45;13.05;;;8.30;;
59302;SDS011;45074;52.764;6.896;2023-04-06T03:24:12;14.57;;;8.40;;
59302;SDS011;45074;52.764;6.896;2023-04-06T03:26:39;19.38;;;9.07;;
59302;SDS011;45074;52.764;6.896;2023-04-06T03:29:05;12.80;;;8.23;;
59302;SDS011;45074;52.764;6.896;2023-04-06T03:31:31;12.65;;;7.43;;
59302;SDS011;45074;52.764;6.896;2023-04-06T03:33:57;14.88;;;8.45;;
59302;SDS011;45074;52.764;6.896;2023-04-06T03:36:24;12.48;;;8.35;;
59302;SDS011;45074;52.764;6.896;2023-04-06T03:38:51;12.70;;;8.18;;
59302;SDS011;45074;52.764;6.896;2023-04-06T03:41:18;13.65;;;8.68;;
59302;SDS011;45074;52.764;6.896;2023-04-06T03:43:44;15.23;;;8.48;;
59302;SDS011;45074;52.764;6.896;2023-04-06T03:46:10;14.88;;;8.93;;
59302;SDS011;45074;52.764;6.896;2023-04-06T03:48:36;11.63;;;8.48;;
59302;SDS011;45074;52.764;6.896;2023-04-06T03:51:02;13.80;;;8.30;;
59302;SDS011;45074;52.764;6.896;2023-04-06T03:53:28;17.02;;;8.82;;
59302;SDS011;45074;52.764;6.896;2023-04-06T03:55:54;13.35;;;8.57;;
59302;SDS011;45074;52.764;6.896;2023-04-06T03:58:20;14.50;;;8.50;;
59302;SDS011;45074;52.764;6.896;2023-04-06T04:00:46;13.52;;;8.45;;
59302;SDS011;45074;52.764;6.896;2023-04-06T04:03:12;13.35;;;8.88;;
59302;SDS011;45074;52.764;6.896;2023-04-06T04:05:38;12.88;;;9.00;;
59302;SDS011;45074;52.764;6.896;2023-04-06T04:08:04;14.10;;;9.00;;
59302;SDS011;45074;52.764;6.896;2023-04-06T04:10:30;13.68;;;8.70;;
59302;SDS011;45074;52.764;6.896;2023-04-06T04:12:56;12.50;;;8.52;;
59302;SDS011;45074;52.764;6.896;2023-04-06T04:15:22;14.52;;;8.85;;
59302;SDS011;45074;52.764;6.896;2023-04-06T04:17:48;13.38;;;8.85;;
59302;SDS011;45074;52.764;6.896;2023-04-06T04:20:15;12.43;;;8.82;;
59302;SDS011;45074;52.764;6.896;2023-04-06T04:22:41;14.88;;;8.88;;
59302;SDS011;45074;52.764;6.896;2023-04-06T04:25:07;13.27;;;9.07;;
59302;SDS011;45074;52.764;6.896;2023-04-06T04:27:34;15.95;;;9.15;;
59302;SDS011;45074;52.764;6.896;2023-04-06T04:30:00;12.65;;;8.93;;
59302;SDS011;45074;52.764;6.896;2023-04-06T04:32:26;14.68;;;9.48;;
59302;SDS011;45074;52.764;6.896;2023-04-06T04:34:52;14.52;;;9.05;;
59302;SDS011;45074;52.764;6.896;2023-04-06T04:37:18;14.25;;;9.48;;
59302;SDS011;45074;52.764;6.896;2023-04-06T04:39:45;15.73;;;8.95;;
59302;SDS011;45074;52.764;6.896;2023-04-06T04:42:11;15.48;;;9.07;;
59302;SDS011;45074;52.764;6.896;2023-04-06T04:44:37;13.38;;;9.27;;
59302;SDS011;45074;52.764;6.896;2023-04-06T04:47:03;14.48;;;9.60;;
59302;SDS011;45074;52.764;6.896;2023-04-06T04:49:29;13.77;;;9.18;;
59302;SDS011;45074;52.764;6.896;2023-04-06T04:51:55;15.52;;;10.05;;
59302;SDS011;45074;52.764;6.896;2023-04-06T04:54:21;15.40;;;10.65;;
59302;SDS011;45074;52.764;6.896;2023-04-06T04:56:47;14.02;;;9.38;;
59302;SDS011;45074;52.764;6.896;2023-04-06T04:59:13;12.95;;;9.40;;
59302;SDS011;45074;52.764;6.896;2023-04-06T05:01:39;13.95;;;9.32;;
59302;SDS011;45074;52.764;6.896;2023-04-06T05:04:05;13.15;;;9.32;;
59302;SDS011;45074;52.764;6.896;2023-04-06T05:06:31;15.43;;;10.23;;
59302;SDS011;45074;52.764;6.896;2023-04-06T05:08:57;17.02;;;10.60;;
59302;SDS011;45074;52.764;6.896;2023-04-06T05:11:23;18.50;;;11.30;;
59302;SDS011;45074;52.764;6.896;2023-04-06T05:13:50;17.60;;;10.88;;
59302;SDS011;45074;52.764;6.896;2023-04-06T05:16:16;20.40;;;11.23;;
59302;SDS011;45074;52.764;6.896;2023-04-06T05:18:42;19.77;;;11.77;;
59302;SDS011;45074;52.764;6.896;2023-04-06T05:21:09;18.90;;;12.07;;
59302;SDS011;45074;52.764;6.896;2023-04-06T05:23:35;21.60;;;13.05;;
59302;SDS011;45074;52.764;6.896;2023-04-06T05:26:01;20.48;;;12.63;;
59302;SDS011;45074;52.764;6.896;2023-04-06T05:28:27;21.38;;;12.85;;
59302;SDS011;45074;52.764;6.896;2023-04-06T05:30:53;24.90;;;15.05;;
59302;SDS011;45074;52.764;6.896;2023-04-06T05:33:20;25.08;;;14.80;;
59302;SDS011;45074;52.764;6.896;2023-04-06T05:35:46;24.60;;;15.45;;
59302;SDS011;45074;52.764;6.896;2023-04-06T05:38:12;24.30;;;15.00;;
59302;SDS011;45074;52.764;6.896;2023-04-06T05:40:38;27.08;;;15.52;;
59302;SDS011;45074;52.764;6.896;2023-04-06T05:43:06;24.17;;;14.43;;
59302;SDS011;45074;52.764;6.896;2023-04-06T05:45:32;26.85;;;14.73;;
59302;SDS011;45074;52.764;6.896;2023-04-06T05:47:58;22.70;;;14.55;;
59302;SDS011;45074;52.764;6.896;2023-04-06T05:50:24;27.05;;;14.77;;
59302;SDS011;45074;52.764;6.896;2023-04-06T05:52:50;18.80;;;12.43;;
59302;SDS011;45074;52.764;6.896;2023-04-06T05:55:16;19.05;;;12.85;;
59302;SDS011;45074;52.764;6.896;2023-04-06T05:57:42;20.40;;;12.85;;
59302;SDS011;45074;52.764;6.896;2023-04-06T06:00:08;19.10;;;12.40;;
59302;SDS011;45074;52.764;6.896;2023-04-06T06:02:35;18.33;;;12.02;;
59302;SDS011;45074;52.764;6.896;2023-04-06T06:05:00;20.17;;;12.20;;
59302;SDS011;45074;52.764;6.896;2023-04-06T06:07:27;18.88;;;11.80;;
59302;SDS011;45074;52.764;6.896;2023-04-06T06:09:55;18.05;;;11.27;;
59302;SDS011;45074;52.764;6.896;2023-04-06T06:12:25;19.73;;;12.20;;
59302;SDS011;45074;52.764;6.896;2023-04-06T06:14:51;17.20;;;11.65;;
59302;SDS011;45074;52.764;6.896;2023-04-06T06:17:17;17.00;;;11.43;;
59302;SDS011;45074;52.764;6.896;2023-04-06T06:19:42;16.35;;;11.32;;
59302;SDS011;45074;52.764;6.896;2023-04-06T06:22:08;15.88;;;10.55;;
59302;SDS011;45074;52.764;6.896;2023-04-06T06:24:34;16.13;;;11.20;;
59302;SDS011;45074;52.764;6.896;2023-04-06T06:27:00;18.88;;;11.88;;
59302;SDS011;45074;52.764;6.896;2023-04-06T06:29:26;19.08;;;11.57;;
59302;SDS011;45074;52.764;6.896;2023-04-06T06:31:52;31.02;;;13.23;;
59302;SDS011;45074;52.764;6.896;2023-04-06T06:34:18;16.55;;;11.75;;
59302;SDS011;45074;52.764;6.896;2023-04-06T06:36:44;18.63;;;12.50;;
59302;SDS011;45074;52.764;6.896;2023-04-06T06:39:10;19.17;;;12.30;;
59302;SDS011;45074;52.764;6.896;2023-04-06T06:41:36;21.95;;;11.57;;
59302;SDS011;45074;52.764;6.896;2023-04-06T06:44:02;17.90;;;11.07;;
59302;SDS011;45074;52.764;6.896;2023-04-06T06:46:28;51.75;;;12.38;;
59302;SDS011;45074;52.764;6.896;2023-04-06T06:48:54;16.98;;;11.68;;
59302;SDS011;45074;52.764;6.896;2023-04-06T06:51:20;15.20;;;10.15;;
59302;SDS011;45074;52.764;6.896;2023-04-06T06:53:47;14.48;;;10.43;;
59302;SDS011;45074;52.764;6.896;2023-04-06T06:56:13;18.08;;;11.10;;
59302;SDS011;45074;52.764;6.896;2023-04-06T06:58:38;16.00;;;10.85;;
59302;SDS011;45074;52.764;6.896;2023-04-06T07:01:04;16.33;;;11.35;;
59302;SDS011;45074;52.764;6.896;2023-04-06T07:03:31;17.13;;;11.02;;
59302;SDS011;45074;52.764;6.896;2023-04-06T07:05:57;30.05;;;11.32;;
59302;SDS011;45074;52.764;6.896;2023-04-06T07:08:23;25.90;;;11.55;;
59302;SDS011;45074;52.764;6.896;2023-04-06T07:10:50;15.57;;;10.98;;
59302;SDS011;45074;52.764;6.896;2023-04-06T07:13:17;17.75;;;10.98;;
59302;SDS011;45074;52.764;6.896;2023-04-06T07:15:47;15.07;;;11.52;;
59302;SDS011;45074;52.764;6.896;2023-04-06T07:18:13;18.65;;;10.43;;
59302;SDS011;45074;52.764;6.896;2023-04-06T07:20:39;16.35;;;11.35;;
59302;SDS011;45074;52.764;6.896;2023-04-06T07:23:06;18.25;;;10.88;;
59302;SDS011;45074;52.764;6.896;2023-04-06T07:25:32;18.17;;;11.07;;
59302;SDS011;45074;52.764;6.896;2023-04-06T07:27:58;16.27;;;11.05;;
59302;SDS011;45074;52.764;6.896;2023-04-06T07:30:24;16.58;;;11.63;;
59302;SDS011;45074;52.764;6.896;2023-04-06T07:32:52;15.52;;;11.95;;
59302;SDS011;45074;52.764;6.896;2023-04-06T07:35:20;18.48;;;11.30;;
59302;SDS011;45074;52.764;6.896;2023-04-06T07:37:46;16.25;;;11.43;;
59302;SDS011;45074;52.764;6.896;2023-04-06T07:40:12;17.27;;;11.77;;
59302;SDS011;45074;52.764;6.896;2023-04-06T07:42:38;16.10;;;11.27;;
59302;SDS011;45074;52.764;6.896;2023-04-06T07:45:05;16.88;;;11.02;;
59302;SDS011;45074;52.764;6.896;2023-04-06T07:47:31;14.75;;;11.32;;
59302;SDS011;45074;52.764;6.896;2023-04-06T07:49:57;17.35;;;11.10;;
59302;SDS011;45074;52.764;6.896;2023-04-06T07:52:23;15.32;;;11.32;;
59302;SDS011;45074;52.764;6.896;2023-04-06T07:54:49;16.73;;;11.85;;
59302;SDS011;45074;52.764;6.896;2023-04-06T07:57:15;16.33;;;11.90;;
59302;SDS011;45074;52.764;6.896;2023-04-06T07:59:41;16.60;;;11.90;;
59302;SDS011;45074;52.764;6.896;2023-04-06T08:02:07;16.65;;;11.68;;
59302;SDS011;45074;52.764;6.896;2023-04-06T08:04:33;18.23;;;11.85;;
59302;SDS011;45074;52.764;6.896;2023-04-06T08:06:59;15.57;;;11.35;;
59302;SDS011;45074;52.764;6.896;2023-04-06T08:09:25;16.17;;;11.68;;
59302;SDS011;45074;52.764;6.896;2023-04-06T08:11:51;14.90;;;11.20;;
59302;SDS011;45074;52.764;6.896;2023-04-06T08:14:18;14.63;;;11.23;;
59302;SDS011;45074;52.764;6.896;2023-04-06T08:16:44;14.43;;;11.60;;
59302;SDS011;45074;52.764;6.896;2023-04-06T08:19:10;17.48;;;11.90;;
59302;SDS011;45074;52.764;6.896;2023-04-06T08:21:37;20.88;;;11.75;;
59302;SDS011;45074;52.764;6.896;2023-04-06T08:24:03;14.65;;;11.65;;
59302;SDS011;45074;52.764;6.896;2023-04-06T08:26:29;14.82;;;11.30;;
59302;SDS011;45074;52.764;6.896;2023-04-06T08:28:55;15.88;;;11.43;;
59302;SDS011;45074;52.764;6.896;2023-04-06T08:31:21;15.38;;;11.77;;
59302;SDS011;45074;52.764;6.896;2023-04-06T08:33:47;15.73;;;11.95;;
59302;SDS011;45074;52.764;6.896;2023-04-06T08:36:13;15.70;;;11.73;;
59302;SDS011;45074;52.764;6.896;2023-04-06T08:38:40;15.73;;;11.65;;
59302;SDS011;45074;52.764;6.896;2023-04-06T08:41:10;14.52;;;10.95;;
59302;SDS011;45074;52.764;6.896;2023-04-06T08:46:07;15.43;;;11.15;;
59302;SDS011;45074;52.764;6.896;2023-04-06T08:48:33;16.70;;;11.93;;
59302;SDS011;45074;52.764;6.896;2023-04-06T08:51:00;16.95;;;11.65;;
59302;SDS011;45074;52.764;6.896;2023-04-06T08:53:27;16.35;;;11.23;;
59302;SDS011;45074;52.764;6.896;2023-04-06T08:55:54;15.48;;;11.80;;
59302;SDS011;45074;52.764;6.896;2023-04-06T08:58:22;18.35;;;11.77;;
59302;SDS011;45074;52.764;6.896;2023-04-06T09:00:49;16.92;;;11.98;;
59302;SDS011;45074;52.764;6.896;2023-04-06T09:03:15;16.55;;;11.25;;
59302;SDS011;45074;52.764;6.896;2023-04-06T09:05:42;17.63;;;11.98;;
59302;SDS011;45074;52.764;6.896;2023-04-06T09:08:08;14.95;;;11.65;;
59302;SDS011;45074;52.764;6.896;2023-04-06T09:10:35;15.20;;;12.23;;
59302;SDS011;45074;52.764;6.896;2023-04-06T09:13:04;16.63;;;11.88;;
59302;SDS011;45074;52.764;6.896;2023-04-06T09:15:30;16.63;;;12.15;;
59302;SDS011;45074;52.764;6.896;2023-04-06T09:17:56;17.83;;;12.45;;
59302;SDS011;45074;52.764;6.896;2023-04-06T09:20:23;18.05;;;12.70;;
59302;SDS011;45074;52.764;6.896;2023-04-06T09:22:53;19.63;;;13.15;;
59302;SDS011;45074;52.764;6.896;2023-04-06T09:25:20;17.05;;;12.82;;
59302;SDS011;45074;52.764;6.896;2023-04-06T09:28:03;18.90;;;13.57;;
59302;SDS011;45074;52.764;6.896;2023-04-06T09:30:29;21.30;;;13.13;;
59302;SDS011;45074;52.764;6.896;2023-04-06T09:32:56;18.98;;;13.38;;
59302;SDS011;45074;52.764;6.896;2023-04-06T09:35:24;20.00;;;12.75;;
59302;SDS011;45074;52.764;6.896;2023-04-06T09:37:52;17.15;;;12.90;;
59302;SDS011;45074;52.764;6.896;2023-04-06T09:40:18;18.80;;;12.95;;
59302;SDS011;45074;52.764;6.896;2023-04-06T09:42:45;19.63;;;13.45;;
59302;SDS011;45074;52.764;6.896;2023-04-06T09:45:12;18.02;;;12.98;;
59302;SDS011;45074;52.764;6.896;2023-04-06T09:47:39;20.58;;;13.65;;
59302;SDS011;45074;52.764;6.896;2023-04-06T09:50:08;16.83;;;13.20;;
59302;SDS011;45074;52.764;6.896;2023-04-06T09:52:49;19.50;;;14.35;;
59302;SDS011;45074;52.764;6.896;2023-04-06T09:55:49;22.38;;;15.10;;
59302;SDS011;45074;52.764;6.896;2023-04-06T09:58:09;22.42;;;15.25;;
59302;SDS011;45074;52.764;6.896;2023-04-06T10:00:42;28.08;;;18.00;;
59302;SDS011;45074;52.764;6.896;2023-04-06T10:06:09;23.35;;;15.43;;
59302;SDS011;45074;52.764;6.896;2023-04-06T10:08:36;19.48;;;13.88;;
59302;SDS011;45074;52.764;6.896;2023-04-06T10:11:07;21.15;;;14.45;;
59302;SDS011;45074;52.764;6.896;2023-04-06T10:13:34;20.92;;;15.10;;
59302;SDS011;45074;52.764;6.896;2023-04-06T10:16:00;21.13;;;15.15;;
59302;SDS011;45074;52.764;6.896;2023-04-06T10:18:26;22.83;;;15.18;;
59302;SDS011;45074;52.764;6.896;2023-04-06T10:20:56;21.10;;;15.80;;
59302;SDS011;45074;52.764;6.896;2023-04-06T10:23:37;25.48;;;17.02;;
59302;SDS011;45074;52.764;6.896;2023-04-06T10:26:12;24.38;;;16.30;;
59302;SDS011;45074;52.764;6.896;2023-04-06T10:31:06;23.10;;;15.82;;
59302;SDS011;45074;52.764;6.896;2023-04-06T10:33:33;23.23;;;15.00;;
59302;SDS011;45074;52.764;6.896;2023-04-06T10:36:12;23.90;;;16.13;;
59302;SDS011;45074;52.764;6.896;2023-04-06T10:38:39;24.83;;;16.70;;
59302;SDS011;45074;52.764;6.896;2023-04-06T10:41:10;23.08;;;16.70;;
59302;SDS011;45074;52.764;6.896;2023-04-06T10:43:37;23.75;;;17.40;;
59302;SDS011;45074;52.764;6.896;2023-04-06T10:46:04;23.77;;;15.98;;
59302;SDS011;45074;52.764;6.896;2023-04-06T10:48:41;22.90;;;16.33;;
59302;SDS011;45074;52.764;6.896;2023-04-06T10:51:09;23.95;;;16.92;;
59302;SDS011;45074;52.764;6.896;2023-04-06T10:53:37;24.00;;;16.60;;
59302;SDS011;45074;52.764;6.896;2023-04-06T10:56:03;22.77;;;16.90;;
59302;SDS011;45074;52.764;6.896;2023-04-06T10:58:29;24.40;;;17.75;;
59302;SDS011;45074;52.764;6.896;2023-04-06T11:00:55;24.67;;;17.88;;
59302;SDS011;45074;52.764;6.896;2023-04-06T11:03:22;29.65;;;19.60;;
59302;SDS011;45074;52.764;6.896;2023-04-06T11:05:49;27.17;;;19.77;;
59302;SDS011;45074;52.764;6.896;2023-04-06T11:08:26;24.08;;;18.30;;
59302;SDS011;45074;52.764;6.896;2023-04-06T11:11:12;24.30;;;18.23;;
59302;SDS011;45074;52.764;6.896;2023-04-06T11:13:50;24.60;;;18.42;;
59302;SDS011;45074;52.764;6.896;2023-04-06T11:16:21;26.52;;;18.83;;
59302;SDS011;45074;52.764;6.896;2023-04-06T11:21:14;24.98;;;19.83;;
59302;SDS011;45074;52.764;6.896;2023-04-06T11:23:40;25.70;;;19.67;;
59302;SDS011;45074;52.764;6.896;2023-04-06T11:26:10;26.83;;;18.48;;
59302;SDS011;45074;52.764;6.896;2023-04-06T11:28:37;25.95;;;19.23;;
59302;SDS011;45074;52.764;6.896;2023-04-06T11:31:04;25.77;;;18.88;;
59302;SDS011;45074;52.764;6.896;2023-04-06T11:33:34;27.85;;;20.60;;
59302;SDS011;45074;52.764;6.896;2023-04-06T11:36:01;24.80;;;19.02;;
59302;SDS011;45074;52.764;6.896;2023-04-06T11:38:27;25.73;;;18.90;;
59302;SDS011;45074;52.764;6.896;2023-04-06T11:40:53;25.52;;;19.08;;
59302;SDS011;45074;52.764;6.896;2023-04-06T11:43:25;27.25;;;19.80;;
59302;SDS011;45074;52.764;6.896;2023-04-06T11:45:58;26.20;;;18.85;;
59302;SDS011;45074;52.764;6.896;2023-04-06T11:48:26;26.08;;;19.25;;
59302;SDS011;45074;52.764;6.896;2023-04-06T11:50:58;26.23;;;19.90;;
59302;SDS011;45074;52.764;6.896;2023-04-06T11:53:29;27.42;;;20.35;;
59302;SDS011;45074;52.764;6.896;2023-04-06T11:55:56;26.92;;;20.17;;
59302;SDS011;45074;52.764;6.896;2023-04-06T11:58:22;26.00;;;19.83;;
59302;SDS011;45074;52.764;6.896;2023-04-06T12:00:48;26.60;;;18.10;;
59302;SDS011;45074;52.764;6.896;2023-04-06T12:03:14;27.90;;;19.90;;
59302;SDS011;45074;52.764;6.896;2023-04-06T12:05:40;27.50;;;19.75;;
59302;SDS011;45074;52.764;6.896;2023-04-06T12:08:06;25.20;;;18.90;;
59302;SDS011;45074;52.764;6.896;2023-04-06T12:10:32;26.63;;;19.63;;
59302;SDS011;45074;52.764;6.896;2023-04-06T12:12:58;29.10;;;19.38;;
59302;SDS011;45074;52.764;6.896;2023-04-06T12:15:25;28.50;;;19.90;;
59302;SDS011;45074;52.764;6.896;2023-04-06T12:17:51;26.67;;;19.00;;
59302;SDS011;45074;52.764;6.896;2023-04-06T12:20:17;27.23;;;20.20;;
59302;SDS011;45074;52.764;6.896;2023-04-06T12:22:43;29.73;;;20.13;;
59302;SDS011;45074;52.764;6.896;2023-04-06T12:25:09;28.40;;;19.42;;
59302;SDS011;45074;52.764;6.896;2023-04-06T12:27:35;28.08;;;18.98;;
59302;SDS011;45074;52.764;6.896;2023-04-06T12:30:01;26.35;;;19.27;;
59302;SDS011;45074;52.764;6.896;2023-04-06T12:32:27;26.08;;;19.38;;
59302;SDS011;45074;52.764;6.896;2023-04-06T12:34:53;28.20;;;19.10;;
59302;SDS011;45074;52.764;6.896;2023-04-06T12:37:19;30.23;;;19.85;;
59302;SDS011;45074;52.764;6.896;2023-04-06T12:39:46;26.77;;;19.35;;
59302;SDS011;45074;52.764;6.896;2023-04-06T12:42:12;26.67;;;19.08;;
59302;SDS011;45074;52.764;6.896;2023-04-06T12:44:38;26.13;;;18.70;;
59302;SDS011;45074;52.764;6.896;2023-04-06T12:47:05;25.67;;;18.15;;
59302;SDS011;45074;52.764;6.896;2023-04-06T12:49:32;26.13;;;18.67;;
59302;SDS011;45074;52.764;6.896;2023-04-06T12:51:58;26.48;;;19.42;;
59302;SDS011;45074;52.764;6.896;2023-04-06T12:54:24;29.55;;;19.25;;
59302;SDS011;45074;52.764;6.896;2023-04-06T12:56:51;26.88;;;18.05;;
59302;SDS011;45074;52.764;6.896;2023-04-06T12:59:17;26.50;;;18.60;;
59302;SDS011;45074;52.764;6.896;2023-04-06T13:01:43;25.25;;;18.55;;
59302;SDS011;45074;52.764;6.896;2023-04-06T13:04:10;26.25;;;18.35;;
59302;SDS011;45074;52.764;6.896;2023-04-06T13:06:36;26.70;;;19.08;;
59302;SDS011;45074;52.764;6.896;2023-04-06T13:09:02;26.13;;;18.55;;
59302;SDS011;45074;52.764;6.896;2023-04-06T13:11:30;24.95;;;17.58;;
59302;SDS011;45074;52.764;6.896;2023-04-06T13:13:56;28.63;;;18.25;;
59302;SDS011;45074;52.764;6.896;2023-04-06T13:16:22;27.40;;;18.50;;
59302;SDS011;45074;52.764;6.896;2023-04-06T13:18:48;26.50;;;19.33;;
59302;SDS011;45074;52.764;6.896;2023-04-06T13:21:15;27.92;;;18.20;;
59302;SDS011;45074;52.764;6.896;2023-04-06T13:23:41;27.52;;;19.02;;
59302;SDS011;45074;52.764;6.896;2023-04-06T13:26:07;26.52;;;19.08;;
59302;SDS011;45074;52.764;6.896;2023-04-06T13:28:35;26.35;;;18.98;;
59302;SDS011;45074;52.764;6.896;2023-04-06T13:31:04;25.58;;;17.83;;
59302;SDS011;45074;52.764;6.896;2023-04-06T13:33:31;27.52;;;18.52;;
59302;SDS011;45074;52.764;6.896;2023-04-06T13:35:57;27.10;;;18.17;;
59302;SDS011;45074;52.764;6.896;2023-04-06T13:38:24;26.23;;;18.65;;
59302;SDS011;45074;52.764;6.896;2023-04-06T13:40:50;27.27;;;19.42;;
59302;SDS011;45074;52.764;6.896;2023-04-06T13:43:16;26.52;;;18.35;;
59302;SDS011;45074;52.764;6.896;2023-04-06T13:45:48;25.80;;;17.05;;
59302;SDS011;45074;52.764;6.896;2023-04-06T13:48:15;24.60;;;16.60;;
59302;SDS011;45074;52.764;6.896;2023-04-06T13:50:41;25.98;;;16.15;;
59302;SDS011;45074;52.764;6.896;2023-04-06T13:53:07;24.98;;;16.60;;
59302;SDS011;45074;52.764;6.896;2023-04-06T13:55:33;24.05;;;16.38;;
59302;SDS011;45074;52.764;6.896;2023-04-06T13:57:59;22.15;;;14.93;;
59302;SDS011;45074;52.764;6.896;2023-04-06T14:00:25;23.80;;;16.40;;
59302;SDS011;45074;52.764;6.896;2023-04-06T14:02:53;24.67;;;16.83;;
59302;SDS011;45074;52.764;6.896;2023-04-06T14:05:19;23.73;;;16.27;;
59302;SDS011;45074;52.764;6.896;2023-04-06T14:07:45;24.38;;;16.00;;
59302;SDS011;45074;52.764;6.896;2023-04-06T14:10:11;26.33;;;16.15;;
59302;SDS011;45074;52.764;6.896;2023-04-06T14:12:40;25.70;;;17.38;;
59302;SDS011;45074;52.764;6.896;2023-04-06T14:15:07;25.08;;;16.52;;
59302;SDS011;45074;52.764;6.896;2023-04-06T14:17:33;24.95;;;17.33;;
59302;SDS011;45074;52.764;6.896;2023-04-06T14:19:59;30.70;;;16.23;;
59302;SDS011;45074;52.764;6.896;2023-04-06T14:22:25;28.30;;;16.23;;
59302;SDS011;45074;52.764;6.896;2023-04-06T14:24:51;25.58;;;16.45;;
59302;SDS011;45074;52.764;6.896;2023-04-06T14:27:17;25.75;;;15.63;;
59302;SDS011;45074;52.764;6.896;2023-04-06T14:29:43;23.67;;;16.23;;
59302;SDS011;45074;52.764;6.896;2023-04-06T14:32:09;23.58;;;15.50;;
59302;SDS011;45074;52.764;6.896;2023-04-06T14:34:39;20.27;;;13.75;;